Terminal Aerodrome Forecast
Issued by NWS

Home | Current Version | Previous Version | Text Only | Print | Product List | Glossary On
Versions: 1 2 3 4 5 6 7 8 9 10 11 12 13 14 15 16 17 18 19 20 21 22 23 24 25 26 27 28 29
000
FTUS41 KRNK 252339
TAFLWB
TAF
KLWB 252339Z 2600/2624 00000KT P6SM SCT040 OVC150
     FM260600 VRB03KT P6SM -RA SCT025 OVC050
     FM260800 35004KT 4SM -SN BR SCT012 OVC020
     FM261100 01005KT 2SM -SN BR OVC012
      TEMPO 2612/2616 1/2SM SN FG OVC007
     FM262000 32004KT 5SM BR BKN005 OVC012=

USA.gov is the U.S. government's official web portal to all federal, state and local government web resources and services.